Bakaly, Russia
Current Conditions -  °F | °C
As of 3:00 AM on Monday 22 Dec 2014 (Local Time) from UWKE Reporting Station
Overcast Overcast  
Wind Chill: 19°   Ceiling: 800
Heat Index: 28°   Visibility: 6mi
Dew Point: 27°   Wind: 11mph
Humidity: 93%   Direction: 180°S
Pressure: 29.71"   Gusts: 18mph
Location:  55.18°N, 53.8°E
Report Text: UWKE 212200Z 18005G08MPS 9999 OVC008 M02/M03 Q1006 NOSIG RMK QFE738/0983 21390040
Loading
Personal Weather Stations






























Interactive Weather Map New forecast layout! Learn more

10-Day Weather Forecast

Advertisements
Track Severe Weather on mobile